createdAt,value
2022-10-06T00:01:17.449Z,101049.53
2022-10-06T00:03:48.255Z,101038.19
2022-10-06T00:06:18.494Z,101054.84
2022-10-06T00:08:48.100Z,101054.97
2022-10-06T00:11:17.635Z,101049.75
2022-10-06T00:13:46.738Z,101048.03
2022-10-06T00:16:18.357Z,101062.69
2022-10-06T00:18:48.396Z,101070.72
2022-10-06T00:21:17.269Z,101069.00
2022-10-06T00:23:45.563Z,101069.00
2022-10-06T00:26:17.083Z,101074.41
2022-10-06T00:28:47.934Z,101084.28
2022-10-06T00:31:17.157Z,101088.84
2022-10-06T00:33:45.435Z,101095.38
2022-10-06T00:36:14.959Z,101097.47
2022-10-06T00:38:43.242Z,101099.66
2022-10-06T00:41:14.233Z,101105.44
2022-10-06T00:43:56.941Z,101103.16
2022-10-06T00:46:36.534Z,101115.47
2022-10-06T00:49:17.996Z,101115.78
2022-10-06T00:51:52.819Z,101113.41
2022-10-06T00:54:21.527Z,101121.78
2022-10-06T00:56:49.821Z,101120.34
2022-10-06T00:59:20.368Z,101121.56
2022-10-06T01:02:03.484Z,101123.78
2022-10-06T01:04:33.891Z,101130.19
2022-10-06T01:07:04.645Z,101129.50
2022-10-06T01:09:33.568Z,101134.06
2022-10-06T01:12:06.787Z,101114.34
2022-10-06T01:14:36.676Z,101124.31
2022-10-06T01:17:12.282Z,101129.97
2022-10-06T01:19:51.713Z,101141.03
2022-10-06T01:22:28.251Z,101146.66
2022-10-06T01:24:57.183Z,101147.75
2022-10-06T01:27:28.860Z,101164.13
2022-10-06T01:29:58.203Z,101169.66
2022-10-06T01:32:32.617Z,101159.69
2022-10-06T01:35:01.011Z,101173.25
2022-10-06T01:37:30.547Z,101182.25
2022-10-06T01:39:58.804Z,101183.88
2022-10-06T01:42:27.129Z,101184.63
2022-10-06T01:44:55.295Z,101187.34
2022-10-06T01:47:23.532Z,101206.31
2022-10-06T01:49:51.722Z,101211.72
2022-10-06T01:52:20.229Z,101242.41
2022-10-06T01:54:49.749Z,101240.03
2022-10-06T01:57:17.948Z,101232.25
2022-10-06T01:59:46.097Z,101243.28
2022-10-06T02:02:14.453Z,101236.47
2022-10-06T02:04:42.722Z,101244.06
2022-10-06T02:07:10.949Z,101240.88
2022-10-06T02:09:39.192Z,101255.75
2022-10-06T02:12:08.795Z,101258.97
2022-10-06T02:14:37.890Z,101265.75
2022-10-06T02:17:06.589Z,101276.16
2022-10-06T02:19:35.339Z,101286.44
2022-10-06T02:22:03.960Z,101282.41
2022-10-06T02:24:35.304Z,101286.41
2022-10-06T02:27:03.566Z,101291.44
2022-10-06T02:29:33.140Z,101289.13
2022-10-06T02:32:01.465Z,101285.84
2022-10-06T02:34:29.692Z,101288.97
2022-10-06T02:36:57.932Z,101289.25
2022-10-06T02:39:26.113Z,101288.69
2022-10-06T02:41:54.363Z,101300.47
2022-10-06T02:44:25.055Z,101301.44
2022-10-06T02:46:55.067Z,101302.44
2022-10-06T02:49:23.322Z,101313.25
2022-10-06T02:51:51.698Z,101318.72
2022-10-06T02:54:19.906Z,101305.19
2022-10-06T02:56:50.193Z,101331.31
2022-10-06T02:59:18.416Z,101331.31
2022-10-06T03:01:46.876Z,101332.19
2022-10-06T03:04:16.480Z,101338.53
2022-10-06T03:06:44.765Z,101349.38
2022-10-06T03:09:13.268Z,101341.34
2022-10-06T03:11:43.661Z,101341.25
2022-10-06T03:14:11.841Z,101334.91
2022-10-06T03:16:42.445Z,101349.31
2022-10-06T03:19:11.680Z,101351.13
2022-10-06T03:21:44.395Z,101354.78
2022-10-06T03:24:12.868Z,101360.13
2022-10-06T03:26:44.613Z,101366.41
2022-10-06T03:29:13.624Z,101367.38
2022-10-06T03:31:42.487Z,101375.50
2022-10-06T03:34:11.184Z,101386.31
2022-10-06T03:36:40.985Z,101391.63
2022-10-06T03:39:09.498Z,101390.75
2022-10-06T03:41:39.326Z,101404.28
2022-10-06T03:44:07.895Z,101407.00
2022-10-06T03:46:37.597Z,101399.75
2022-10-06T03:49:06.422Z,101408.75
2022-10-06T03:51:37.268Z,101419.66
2022-10-06T03:54:07.889Z,101416.97
2022-10-06T03:56:38.449Z,101420.63
2022-10-06T03:59:10.039Z,101433.38
2022-10-06T04:01:40.343Z,101438.97
2022-10-06T04:04:09.663Z,101443.63
2022-10-06T04:06:40.760Z,101450.78
2022-10-06T04:09:15.720Z,101454.34
2022-10-06T04:11:45.953Z,101450.78
2022-10-06T04:14:17.021Z,101451.75
2022-10-06T04:16:48.332Z,101461.78
2022-10-06T04:19:18.760Z,101459.09
2022-10-06T04:21:48.243Z,101467.31
2022-10-06T04:24:18.520Z,101465.47
2022-10-06T04:26:48.908Z,101473.59
2022-10-06T04:29:17.478Z,101479.88
2022-10-06T04:31:46.156Z,101491.66
2022-10-06T04:34:14.686Z,101495.25
2022-10-06T04:36:44.171Z,101499.78
2022-10-06T04:39:13.565Z,101507.91
2022-10-06T04:41:46.638Z,101514.34
2022-10-06T04:44:15.061Z,101515.25
2022-10-06T04:46:44.799Z,101521.69
2022-10-06T04:49:19.633Z,101527.09
2022-10-06T04:51:50.033Z,101538.97
2022-10-06T04:54:21.371Z,101539.94
2022-10-06T04:56:50.968Z,101550.78
2022-10-06T04:59:19.155Z,101552.50
2022-10-06T05:01:47.388Z,101549.81
2022-10-06T05:04:15.671Z,101553.91
2022-10-06T05:06:44.194Z,101555.84
2022-10-06T05:09:14.757Z,101559.47
2022-10-06T05:11:42.998Z,101565.84
2022-10-06T05:14:12.603Z,101582.09
2022-10-06T05:16:42.096Z,101584.88
2022-10-06T05:19:11.553Z,101589.53
2022-10-06T05:21:39.816Z,101596.88
2022-10-06T05:24:08.224Z,101595.13
2022-10-06T05:26:37.785Z,101606.91
2022-10-06T05:29:06.080Z,101614.06
2022-10-06T05:31:38.920Z,101618.78
2022-10-06T05:34:07.994Z,101617.00
2022-10-06T05:36:36.810Z,101626.09
2022-10-06T05:39:06.147Z,101626.09
2022-10-06T05:41:37.730Z,101630.38
2022-10-06T05:44:06.089Z,101633.69
2022-10-06T05:46:36.591Z,101638.13
2022-10-06T05:49:07.959Z,101646.25
2022-10-06T05:51:38.806Z,101652.53
2022-10-06T05:54:07.469Z,101657.94
2022-10-06T05:56:37.696Z,101662.47
2022-10-06T05:59:06.745Z,101673.31
2022-10-06T06:01:39.879Z,101676.00
2022-10-06T06:04:10.921Z,101684.13
2022-10-06T06:06:41.263Z,101684.03
2022-10-06T06:09:12.045Z,101685.88
2022-10-06T06:11:42.078Z,101695.72
2022-10-06T06:14:12.849Z,101702.00
2022-10-06T06:16:42.584Z,101715.47
2022-10-06T06:19:14.068Z,101713.56
2022-10-06T06:21:42.519Z,101718.88
2022-10-06T06:24:10.770Z,101714.34
2022-10-06T06:26:39.323Z,101730.56
2022-10-06T06:29:07.613Z,101733.28
2022-10-06T06:31:39.370Z,101734.16
2022-10-06T06:34:09.091Z,101744.00
2022-10-06T06:36:40.921Z,101743.81
2022-10-06T06:39:12.084Z,101753.59
2022-10-06T06:41:43.124Z,101754.41
2022-10-06T06:44:12.171Z,101763.31
2022-10-06T06:46:43.283Z,101752.38
2022-10-06T06:49:12.950Z,101768.44
2022-10-06T06:51:43.548Z,101761.97
2022-10-06T06:54:13.009Z,101772.56
2022-10-06T06:56:41.382Z,101776.72
2022-10-06T06:59:12.050Z,101777.34
2022-10-06T07:01:45.571Z,101779.81
2022-10-06T07:04:17.754Z,101791.16
2022-10-06T07:06:57.155Z,101809.75
2022-10-06T07:09:27.025Z,101807.44
2022-10-06T07:11:55.995Z,101809.03
2022-10-06T07:14:24.398Z,101819.41
2022-10-06T07:17:10.196Z,101817.03
2022-10-06T07:19:56.993Z,101829.16
2022-10-06T07:22:46.598Z,101827.56
2022-10-06T07:25:26.231Z,101830.50
2022-10-06T07:27:55.444Z,101834.31
2022-10-06T07:30:26.651Z,101833.72
2022-10-06T07:32:55.661Z,101849.63
2022-10-06T07:35:26.266Z,101857.16
2022-10-06T07:37:54.902Z,101864.06
2022-10-06T07:40:23.386Z,101862.84
2022-10-06T07:42:52.782Z,101866.84
2022-10-06T07:45:41.540Z,101878.88
2022-10-06T07:48:14.278Z,101878.28
2022-10-06T07:50:45.613Z,101884.84
2022-10-06T07:53:13.849Z,101882.34
2022-10-06T07:55:45.364Z,101885.34
2022-10-06T07:58:15.159Z,101891.81
2022-10-06T08:00:44.833Z,101903.84
2022-10-06T08:03:18.137Z,101906.91
2022-10-06T08:05:48.866Z,101928.28
2022-10-06T08:08:18.298Z,101913.50
2022-10-06T08:10:54.518Z,101919.81
2022-10-06T08:13:23.247Z,101917.97
2022-10-06T08:15:51.829Z,101934.47
2022-10-06T08:18:44.306Z,101931.09
2022-10-06T08:21:16.624Z,101942.44
2022-10-06T08:23:46.402Z,101943.63
2022-10-06T08:26:17.220Z,101950.19
2022-10-06T08:28:48.831Z,101953.13
2022-10-06T08:31:18.681Z,101964.09
2022-10-06T08:33:47.878Z,101960.19
2022-10-06T08:36:20.674Z,101976.69
2022-10-06T08:38:50.426Z,101967.63
2022-10-06T08:41:25.194Z,101972.91
2022-10-06T08:44:04.466Z,101977.31
2022-10-06T08:46:38.298Z,101977.22
2022-10-06T08:49:08.077Z,101980.91
2022-10-06T08:51:56.284Z,101982.28
2022-10-06T08:54:33.986Z,101993.69
2022-10-06T08:57:09.974Z,101991.03
2022-10-06T08:59:38.418Z,102001.41
2022-10-06T09:02:28.078Z,102005.16
2022-10-06T09:04:58.133Z,102018.56
2022-10-06T09:07:39.683Z,102021.56
2022-10-06T09:10:27.267Z,102027.22
2022-10-06T09:13:02.147Z,102025.16
2022-10-06T09:15:36.130Z,102021.28
2022-10-06T09:18:14.426Z,102035.31
2022-10-06T09:20:51.104Z,102048.06
2022-10-06T09:23:41.712Z,102044.88
2022-10-06T09:26:14.119Z,102043.75
2022-10-06T09:28:46.150Z,102066.22
2022-10-06T09:31:23.609Z,102042.56
2022-10-06T09:33:54.836Z,102061.13
2022-10-06T09:36:24.164Z,102061.03
2022-10-06T09:38:56.234Z,102062.34
2022-10-06T09:41:29.678Z,102073.19
2022-10-06T09:44:00.422Z,102062.19
2022-10-06T09:46:33.520Z,102067.88
2022-10-06T09:49:17.702Z,102063.22
2022-10-06T09:52:10.363Z,102065.16
2022-10-06T09:54:41.925Z,102073.13
2022-10-06T09:57:16.148Z,102076.06
2022-10-06T09:59:46.916Z,102077.88
2022-10-06T10:02:37.093Z,102093.91
2022-10-06T10:05:17.379Z,102097.81
2022-10-06T10:07:48.104Z,102106.97
2022-10-06T10:10:24.218Z,102103.06
2022-10-06T10:12:54.417Z,102095.25
2022-10-06T10:15:31.405Z,102106.19
2022-10-06T10:18:03.087Z,102094.59
2022-10-06T10:20:38.365Z,102110.94
2022-10-06T10:23:30.127Z,102122.03
2022-10-06T10:26:29.055Z,102118.41
2022-10-06T10:29:33.129Z,102128.56
2022-10-06T10:32:12.261Z,102133.28
2022-10-06T10:35:04.302Z,102127.53
2022-10-06T10:37:41.346Z,102133.44
2022-10-06T10:40:30.031Z,102132.13
2022-10-06T10:43:09.224Z,102147.75
2022-10-06T10:45:44.863Z,102129.28
2022-10-06T10:48:19.794Z,102136.91
2022-10-06T10:51:05.797Z,102144.72
2022-10-06T10:53:45.363Z,102152.63
2022-10-06T10:56:17.465Z,102150.53
2022-10-06T10:58:53.376Z,102138.31
2022-10-06T11:01:36.082Z,102160.34
2022-10-06T11:04:05.036Z,102169.31
2022-10-06T11:07:01.299Z,102165.50
2022-10-06T11:09:41.719Z,102173.03
2022-10-06T11:12:23.557Z,102178.16
2022-10-06T11:15:03.473Z,102173.38
2022-10-06T11:17:45.118Z,102171.28
2022-10-06T11:20:39.773Z,102177.28
2022-10-06T11:23:32.580Z,102185.38
2022-10-06T11:26:10.789Z,102191.28
2022-10-06T11:28:48.406Z,102194.13
2022-10-06T11:31:30.552Z,102183.50
2022-10-06T11:34:02.480Z,102181.78
2022-10-06T11:36:44.537Z,102192.78
2022-10-06T11:39:24.885Z,102188.06
2022-10-06T11:42:04.163Z,102188.84
2022-10-06T11:44:39.601Z,102191.25
2022-10-06T11:47:14.723Z,102183.72
2022-10-06T11:49:53.334Z,102191.69
2022-10-06T11:52:47.505Z,102204.38
2022-10-06T11:55:23.907Z,102214.97
2022-10-06T12:01:05.844Z,102200.84
2022-10-06T12:04:13.886Z,102204.88
2022-10-06T12:07:04.089Z,102209.34
2022-10-06T12:09:51.667Z,102211.56
2022-10-06T12:13:07.289Z,102204.69
2022-10-06T12:19:22.647Z,102215.50
2022-10-06T12:22:01.872Z,102227.50
2022-10-06T12:24:41.419Z,102219.06
2022-10-06T12:27:34.378Z,102225.53
2022-10-06T12:30:17.139Z,102207.97
2022-10-06T12:32:50.135Z,102219.41
2022-10-06T12:35:26.335Z,102227.25
2022-10-06T12:37:55.351Z,102232.44
2022-10-06T12:40:55.368Z,102243.00
2022-10-06T12:43:54.936Z,102224.59
2022-10-06T12:46:45.734Z,102237.94
2022-10-06T12:49:54.285Z,102219.34
2022-10-06T12:52:43.308Z,102241.94
2022-10-06T12:55:32.174Z,102250.13
2022-10-06T12:58:01.277Z,102253.72
2022-10-06T13:00:38.688Z,102252.22
2022-10-06T13:03:09.824Z,102257.88
2022-10-06T13:05:38.416Z,102254.91
2022-10-06T13:08:24.555Z,102252.69
2022-10-06T13:10:52.791Z,102260.31
2022-10-06T13:13:24.653Z,102257.25
2022-10-06T13:15:55.924Z,102263.31
2022-10-06T13:18:25.137Z,102260.03
2022-10-06T13:20:55.190Z,102264.22
2022-10-06T13:23:28.263Z,102269.94
2022-10-06T13:25:59.528Z,102272.41
2022-10-06T13:28:46.737Z,102272.34
2022-10-06T13:31:21.916Z,102273.44
2022-10-06T13:33:53.689Z,102272.75
2022-10-06T13:36:23.579Z,102275.97
2022-10-06T13:38:53.342Z,102273.66
2022-10-06T13:41:29.228Z,102270.63
2022-10-06T13:44:01.226Z,102282.91
2022-10-06T13:46:32.976Z,102275.13
2022-10-06T13:49:17.651Z,102279.19
2022-10-06T13:51:51.983Z,102275.03
2022-10-06T13:54:30.463Z,102282.53
2022-10-06T13:56:59.367Z,102288.06
2022-10-06T13:59:38.411Z,102289.97
2022-10-06T14:02:32.406Z,102285.44
2022-10-06T14:05:29.306Z,102298.06
2022-10-06T14:08:01.234Z,102296.03
2022-10-06T14:10:37.777Z,102298.66
2022-10-06T14:13:10.099Z,102297.56
2022-10-06T14:15:49.791Z,102297.56
2022-10-06T14:18:24.118Z,102296.78
2022-10-06T14:20:53.520Z,102302.66
2022-10-06T14:23:44.533Z,102303.13
2022-10-06T14:26:16.588Z,102307.09
2022-10-06T14:28:49.495Z,102305.72
2022-10-06T14:31:18.141Z,102310.59
2022-10-06T14:33:48.433Z,102308.31
2022-10-06T14:36:19.823Z,102302.47
2022-10-06T14:38:50.298Z,102303.81
2022-10-06T14:41:24.691Z,102325.06
2022-10-06T14:43:56.651Z,102316.31
2022-10-06T14:46:26.161Z,102321.06
2022-10-06T14:48:54.661Z,102316.72
2022-10-06T14:51:24.596Z,102317.78
2022-10-06T14:53:54.575Z,102315.47
2022-10-06T14:56:25.979Z,102320.09
2022-10-06T14:58:54.439Z,102321.25
2022-10-06T15:01:26.310Z,102325.03
2022-10-06T15:03:56.746Z,102330.66
2022-10-06T15:06:42.697Z,102334.41
2022-10-06T15:09:11.898Z,102316.53
2022-10-06T15:11:42.061Z,102327.50
2022-10-06T15:14:10.842Z,102328.47
2022-10-06T15:16:42.325Z,102324.97
2022-10-06T15:19:11.571Z,102322.34
2022-10-06T15:21:40.785Z,102335.06
2022-10-06T15:24:13.279Z,102336.94
2022-10-06T15:27:01.192Z,102336.06
2022-10-06T15:29:29.847Z,102323.47
2022-10-06T15:32:00.232Z,102337.13
2022-10-06T15:34:30.274Z,102329.16
2022-10-06T15:37:00.237Z,102323.81
2022-10-06T15:39:30.347Z,102330.31
2022-10-06T15:42:00.403Z,102329.44
2022-10-06T15:44:32.028Z,102324.00
2022-10-06T15:47:01.120Z,102327.84
2022-10-06T15:49:32.691Z,102329.78
2022-10-06T15:52:03.778Z,102326.38
2022-10-06T15:54:37.451Z,102324.78
2022-10-06T15:57:09.671Z,102326.81
2022-10-06T15:59:40.389Z,102336.09
2022-10-06T16:02:14.447Z,102336.19
2022-10-06T16:04:56.565Z,102335.56
2022-10-06T16:07:24.862Z,102340.19
2022-10-06T16:09:53.481Z,102336.88
2022-10-06T16:12:24.920Z,102331.69
2022-10-06T16:14:53.220Z,102334.66
2022-10-06T16:17:21.883Z,102341.16
2022-10-06T16:19:50.096Z,102330.56
2022-10-06T16:22:19.926Z,102337.09
2022-10-06T16:24:48.136Z,102333.69
2022-10-06T16:27:17.381Z,102341.28
2022-10-06T16:29:46.992Z,102350.59
2022-10-06T16:32:15.229Z,102348.19
2022-10-06T16:34:43.437Z,102353.88
2022-10-06T16:37:11.622Z,102348.00
2022-10-06T16:39:39.837Z,102356.38
2022-10-06T16:42:08.137Z,102354.00
2022-10-06T16:44:36.725Z,102354.31
2022-10-06T16:47:06.364Z,102357.19
2022-10-06T16:49:34.603Z,102362.00
2022-10-06T16:52:02.791Z,102365.88
2022-10-06T16:54:30.981Z,102377.78
2022-10-06T16:57:01.619Z,102375.06
2022-10-06T16:59:30.395Z,102377.06
2022-10-06T17:01:58.594Z,102379.81
2022-10-06T17:04:28.485Z,102379.13
2022-10-06T17:06:58.198Z,102372.97
2022-10-06T17:09:28.445Z,102377.69
2022-10-06T17:11:59.386Z,102376.94
2022-10-06T17:14:30.396Z,102383.41
2022-10-06T17:16:59.415Z,102381.75
2022-10-06T17:19:30.965Z,102386.38
2022-10-06T17:22:00.085Z,102381.97
2022-10-06T17:24:29.670Z,102382.94
2022-10-06T17:26:59.057Z,102384.91
2022-10-06T17:29:27.620Z,102390.47
2022-10-06T17:31:58.744Z,102382.59
2022-10-06T17:34:32.783Z,102383.84
2022-10-06T17:37:02.496Z,102378.66
2022-10-06T17:39:30.844Z,102378.78
2022-10-06T17:41:59.215Z,102378.94
2022-10-06T17:44:28.763Z,102383.66
2022-10-06T17:46:59.444Z,102383.81
2022-10-06T17:49:30.449Z,102384.88
2022-10-06T17:51:58.979Z,102385.00
2022-10-06T17:54:28.738Z,102379.91
2022-10-06T17:56:59.383Z,102384.66
2022-10-06T17:59:30.448Z,102384.06
2022-10-06T18:02:01.067Z,102379.88
2022-10-06T18:04:31.655Z,102380.28
2022-10-06T18:07:00.410Z,102379.59
2022-10-06T18:09:29.576Z,102377.19
2022-10-06T18:11:58.542Z,102380.00
2022-10-06T18:14:32.221Z,102385.66
2022-10-06T18:17:02.523Z,102389.47
2022-10-06T18:19:35.488Z,102394.16
2022-10-06T18:22:07.925Z,102393.38
2022-10-06T18:24:36.165Z,102390.09
2022-10-06T18:27:06.180Z,102401.09
2022-10-06T18:29:37.687Z,102387.78
2022-10-06T18:37:46.257Z,102396.59
2022-10-06T18:40:14.917Z,102395.88
2022-10-06T18:42:43.293Z,102396.06
2022-10-06T18:45:34.224Z,102406.06
2022-10-06T18:48:23.211Z,102404.38
2022-10-06T18:51:02.025Z,102394.59
2022-10-06T18:53:32.626Z,102399.91
2022-10-06T18:56:00.816Z,102399.09
2022-10-06T18:58:29.006Z,102405.50
2022-10-06T19:00:57.342Z,102407.31
2022-10-06T19:03:28.363Z,102402.88
2022-10-06T19:05:56.602Z,102408.28
2022-10-06T19:08:26.194Z,102412.00
2022-10-06T19:11:08.421Z,102406.66
2022-10-06T19:13:37.448Z,102404.03
2022-10-06T19:16:06.048Z,102400.44
2022-10-06T19:18:36.478Z,102412.22
2022-10-06T19:21:09.472Z,102409.56
2022-10-06T19:23:40.775Z,102408.72
2022-10-06T19:26:11.977Z,102409.63
2022-10-06T19:28:40.907Z,102406.91
2022-10-06T19:31:12.502Z,102402.53
2022-10-06T19:33:41.953Z,102401.66
2022-10-06T19:36:10.536Z,102410.69
2022-10-06T19:38:40.723Z,102414.34
2022-10-06T19:41:26.731Z,102410.78
2022-10-06T19:43:54.972Z,102410.84
2022-10-06T19:46:23.276Z,102406.44
2022-10-06T19:48:56.521Z,102410.09
2022-10-06T19:51:25.935Z,102411.97
2022-10-06T19:53:55.592Z,102415.59
2022-10-06T19:56:25.264Z,102416.50
2022-10-06T19:58:53.872Z,102403.00
2022-10-06T20:01:22.241Z,102409.31
2022-10-06T20:03:50.539Z,102408.41
2022-10-06T20:06:23.208Z,102410.19
2022-10-06T20:08:52.693Z,102408.38
2022-10-06T20:11:23.521Z,102404.78
2022-10-06T20:13:52.157Z,102406.63
2022-10-06T20:16:21.388Z,102400.38
2022-10-06T20:18:50.671Z,102401.38
2022-10-06T20:21:22.050Z,102402.41
2022-10-06T20:23:52.035Z,102400.59
2022-10-06T20:26:24.767Z,102402.41
2022-10-06T20:28:53.218Z,102404.22
2022-10-06T20:31:24.203Z,102407.81
2022-10-06T20:33:53.817Z,102407.81
2022-10-06T20:36:22.107Z,102411.47
2022-10-06T20:39:07.645Z,102410.56
2022-10-06T20:41:37.481Z,102405.19
2022-10-06T20:44:07.273Z,102415.03
2022-10-06T20:46:38.153Z,102407.81
2022-10-06T20:49:09.888Z,102424.97
2022-10-06T20:51:41.583Z,102415.97
2022-10-06T20:54:11.277Z,102419.63
2022-10-06T20:56:40.973Z,102404.28
2022-10-06T20:59:12.210Z,102408.81
2022-10-06T21:01:41.083Z,102406.16
2022-10-06T21:04:10.295Z,102413.53
2022-10-06T21:06:39.159Z,102413.66
2022-10-06T21:09:09.797Z,102410.06
2022-10-06T21:11:38.075Z,102407.44
2022-10-06T21:14:10.743Z,102400.28
2022-10-06T21:16:42.492Z,102403.94
2022-10-06T21:19:14.203Z,102402.19
2022-10-06T21:21:45.852Z,102407.56
2022-10-06T21:24:14.098Z,102406.66
2022-10-06T21:26:42.719Z,102404.97
2022-10-06T21:29:14.712Z,102400.66
2022-10-06T21:31:43.659Z,102410.72
2022-10-06T21:34:12.338Z,102413.47
2022-10-06T21:36:40.739Z,102406.44
2022-10-06T21:39:13.147Z,102411.06
2022-10-06T21:41:42.301Z,102415.81
2022-10-06T21:44:13.914Z,102404.28
2022-10-06T21:46:46.713Z,102417.03
2022-10-06T21:49:16.950Z,102407.53
2022-10-06T21:51:47.609Z,102412.94
2022-10-06T21:54:16.518Z,102399.56
2022-10-06T21:56:45.209Z,102399.69
2022-10-06T21:59:15.375Z,102409.66
2022-10-06T22:01:46.567Z,102401.63
2022-10-06T22:04:16.131Z,102397.22
2022-10-06T22:06:49.813Z,102399.03
2022-10-06T22:09:20.255Z,102393.72
2022-10-06T22:11:49.144Z,102397.34
2022-10-06T22:14:20.486Z,102390.19
2022-10-06T22:16:48.737Z,102381.22
2022-10-06T22:19:18.018Z,102381.34
2022-10-06T22:21:48.921Z,102382.31
2022-10-06T22:24:19.744Z,102387.84
2022-10-06T22:26:49.439Z,102379.88
2022-10-06T22:29:21.070Z,102385.50
2022-10-06T22:31:50.270Z,102379.34
2022-10-06T22:34:20.963Z,102383.06
2022-10-06T22:36:49.274Z,102373.25
2022-10-06T22:39:17.847Z,102381.44
2022-10-06T22:41:46.520Z,102383.34
2022-10-06T22:44:14.739Z,102370.84
2022-10-06T22:46:44.544Z,102367.34
2022-10-06T22:49:13.094Z,102359.31
2022-10-06T22:51:41.359Z,102369.34
2022-10-06T22:54:15.586Z,102371.13
2022-10-06T22:56:43.847Z,102371.19
2022-10-06T22:59:12.122Z,102364.03
2022-10-06T23:01:40.364Z,102362.28
2022-10-06T23:04:09.931Z,102348.84
2022-10-06T23:06:38.193Z,102357.81
2022-10-06T23:09:06.479Z,102361.47
2022-10-06T23:11:34.681Z,102353.44
2022-10-06T23:14:02.897Z,102351.75
2022-10-06T23:16:31.226Z,102345.53
2022-10-06T23:18:59.561Z,102348.25
2022-10-06T23:21:29.178Z,102338.34
2022-10-06T23:24:00.991Z,102332.97
2022-10-06T23:26:29.847Z,102342.88
2022-10-06T23:29:00.506Z,102338.34
2022-10-06T23:31:29.774Z,102331.19
2022-10-06T23:33:58.473Z,102322.19
2022-10-06T23:36:28.279Z,102320.41
2022-10-06T23:38:56.544Z,102325.78
2022-10-06T23:41:24.838Z,102323.09
2022-10-06T23:43:53.272Z,102322.19
2022-10-06T23:46:21.583Z,102326.69
2022-10-06T23:48:49.814Z,102320.41
2022-10-06T23:51:18.149Z,102313.22
2022-10-06T23:53:48.306Z,102315.91
2022-10-06T23:56:16.568Z,102315.91
2022-10-06T23:58:44.807Z,102315.03
